Latest Weather Observations for Mount Isa

IDQ60801

Issued at 10:02 am EST Monday 5 December 2016 (issued every 30 minutes, with the page automatically refreshed every 10 minutes)

About weather observations | Map of weather stations | Latest weather observations for QLD | Other Formats
Station Details ID: 029127 Name: MOUNT ISA AERO Lat: -20.68 Lon: 139.49 Height: 340.3 m
Data from the previous 72 hours. | See also: Recent months at Mount Isa
Date/Time
EST
Temp
°C
App
Temp
°C
Dew
Point
°C
Rel
Hum
%
Delta-T
°C
Wind Press
QNH
hPa
Press
MSL
hPa
Rain since
9am
mm
Dir  Spd
km/h
Gust
km/h
Spd
kts
Gust
kts
05/10:00am 36.3 34.6 13.7 25 14.1 ENE 15 24 8 13 1013.8 1011.3 0.0
05/09:30am 35.1 35.6 14.9 29 12.7 WSW 6 9 3 5 1014.0 1011.5 0.0
05/09:00am 34.3 35.6 15.2 31 12.1 NNE 2 7 1 4 1014.2 1011.7 0.0
05/08:30am 32.9 33.2 14.5 33 11.4 ESE 6 7 3 4 1014.3 1011.8 0.0
05/08:00am 32.2 33.1 12.9 31 11.7 CALM 0 7 0 4 1014.3 1011.8 0.0
05/07:30am 30.0 28.9 10.0 29 11.5 S 6 7 3 4 1014.0 1011.5 0.0
05/07:00am 27.2 25.8 9.5 33 9.9 S 7 9 4 5 1013.9 1011.4 0.0
05/06:30am 22.4 22.1 10.2 46 6.8 S 2 6 1 3 1013.6 1011.0 0.0
05/06:00am 21.8 20.5 10.0 47 6.5 S 7 9 4 5 1013.0 1010.4 0.0
05/05:30am 21.2 21.1 9.4 47 6.4 CALM 0 0 0 0 1012.5 1009.9 0.0
05/05:00am 21.1 20.8 8.7 45 6.7 CALM 0 0 0 0 1012.0 1009.4 0.0
05/04:30am 21.6 21.3 8.8 44 6.9 CALM 0 0 0 0 1011.7 1009.1 0.0
05/04:00am 21.3 21.0 8.6 44 6.8 CALM 0 0 0 0 1011.6 1009.0 0.0
05/03:30am 21.3 20.9 8.2 43 7.0 CALM 0 0 0 0 1011.1 1008.6 0.0
05/03:00am 22.1 21.8 8.6 42 7.3 CALM 0 0 0 0 1011.0 1008.4 0.0
05/02:30am 21.2 19.4 7.1 40 7.3 W 6 7 3 4 1010.9 1008.3 0.0
05/02:00am 21.8 21.2 7.6 40 7.5 CALM 0 0 0 0 1010.9 1008.3 0.0
05/01:30am 21.9 21.3 7.3 39 7.7 CALM 0 0 0 0 1010.9 1008.3 0.0
05/01:00am 22.1 21.4 7.1 38 7.9 CALM 0 0 0 0 1010.9 1008.3 0.0
05/12:30am 22.8 22.2 7.4 37 8.1 CALM 0 0 0 0 1011.0 1008.4 0.0
05/12:00am 23.8 23.1 7.0 34 8.9 CALM 0 6 0 3 1011.2 1008.7 0.0
 
Date/Time
EST
Temp
°C
App
Temp
°C
Dew
Point
°C
Rel
Hum
%
Delta-T
°C
Wind Press
QNH
hPa
Press
MSL
hPa
Rain since
9am
mm
Dir  Spd
km/h
Gust
km/h
Spd
kts
Gust
kts
04/11:30pm 23.9 23.1 6.7 33 9.0 CALM 0 0 0 0 1011.3 1008.8 0.0
04/11:00pm 24.6 24.0 7.3 33 9.2 CALM 0 0 0 0 1011.3 1008.8 0.0
04/10:30pm 25.6 25.0 7.2 31 9.8 CALM 0 0 0 0 1011.4 1008.9 0.0
04/10:00pm 26.7 26.1 7.2 29 10.5 CALM 0 0 0 0 1011.3 1008.8 0.0
04/09:30pm 27.9 26.5 7.2 27 11.2 N 4 7 2 4 1011.0 1008.4 0.0
04/09:00pm 30.2 28.0 6.1 22 13.0 NNE 7 9 4 5 1010.8 1008.2 0.0
04/08:30pm 33.8 31.0 7.0 19 14.9 NE 11 13 6 7 1010.6 1008.0 0.0
04/08:00pm 35.5 31.9 6.7 17 16.1 NE 15 20 8 11 1010.3 1007.7 0.0
04/07:30pm 36.0 31.7 7.1 17 16.3 NE 19 30 10 16 1009.9 1007.3 0.0
04/07:00pm 37.4 33.0 6.4 15 17.4 NE 19 32 10 17 1009.4 1006.8 0.0
04/06:30pm 38.6 33.6 6.3 14 18.2 NE 22 32 12 17 1008.9 1006.3 0.0
04/06:00pm 39.5 34.4 6.0 13 18.9 NE 22 32 12 17 1008.7 1006.1 0.0
04/05:30pm 40.8 35.7 5.8 12 19.8 ENE 22 32 12 17 1008.7 1006.1 0.0
04/05:00pm 40.1 34.3 6.4 13 19.2 NE 26 39 14 21 1008.6 1006.0 0.0
04/04:30pm 41.3 36.9 7.4 13 19.6 NNE 20 28 11 15 1008.6 1006.0 0.0
04/04:00pm 41.2 35.7 6.1 12 20.0 NE 24 35 13 19 1008.7 1006.1 0.0
04/03:30pm 41.3 37.5 7.4 13 19.6 ENE 17 28 9 15 1009.1 1006.5 0.0
04/03:00pm 39.9 34.9 6.3 13 19.1 NNE 22 35 12 19 1009.4 1006.8 0.0
04/02:30pm 41.1 37.2 7.2 13 19.6 NNE 17 39 9 21 1009.8 1007.2 0.0
04/02:29pm 40.8 36.6 5.8 12 19.8 NNE 17 39 9 21 1009.8 1007.2 0.0
04/02:00pm 40.2 36.2 6.5 13 19.2 NE 17 30 9 16 1010.4 1007.8 0.0
04/01:30pm 41.0 38.4 9.2 15 18.9 N 13 22 7 12 1010.6 1008.0 0.0
04/01:00pm 39.6 35.4 8.1 15 18.3 E 20 33 11 18 1011.1 1008.6 0.0
04/12:30pm 40.1 35.8 9.5 16 18.2 NNE 22 33 12 18 1011.6 1009.0 0.0
04/12:00pm 39.4 37.0 11.5 19 17.0 ENE 15 28 8 15 1012.2 1009.6 0.0
04/11:30am 38.1 36.8 11.2 20 16.3 SSE 9 17 5 9 1012.7 1010.1 0.0
04/11:00am 38.2 36.1 11.3 20 16.3 NW 13 19 7 10 1013.1 1010.5 0.0
04/10:30am 38.0 36.7 12.6 22 15.6 NNW 11 17 6 9 1013.6 1011.0 0.0
04/10:00am 37.5 35.1 12.8 22 15.2 NW 17 28 9 15 1013.7 1011.1 0.0
04/09:30am 36.9 35.0 13.0 24 14.7 WNW 15 26 8 14 1013.8 1011.3 0.0
04/09:00am 35.3 35.5 12.9 26 13.7 NNE 4 7 2 4 1013.9 1011.4 0.0
04/08:30am 33.6 33.1 12.6 28 12.7 NNE 7 11 4 6 1013.9 1011.4 0.0
04/08:00am 31.3 32.1 12.6 31 11.2 CALM 0 0 0 0 1013.8 1011.3 0.0
04/07:30am 29.0 29.8 12.4 36 9.8 CALM 0 0 0 0 1013.6 1011.0 0.0
04/07:00am 25.8 27.2 14.3 49 6.9 CALM 0 0 0 0 1013.3 1010.7 0.0
04/06:30am 22.0 23.1 13.6 59 4.9 CALM 0 0 0 0 1012.8 1010.2 0.0
04/06:00am 21.0 21.8 12.4 58 4.9 CALM 0 0 0 0 1012.3 1009.7 0.0
04/05:30am 21.3 22.0 12.2 56 5.2 CALM 0 0 0 0 1012.0 1009.4 0.0
04/05:00am 21.4 22.0 12.0 55 5.4 CALM 0 0 0 0 1011.7 1009.1 0.0
04/04:30am 21.5 22.2 12.1 55 5.4 CALM 0 0 0 0 1011.3 1008.8 0.0
04/04:00am 22.2 22.9 12.2 53 5.7 CALM 0 0 0 0 1011.0 1008.4 0.0
04/03:30am 22.4 21.8 11.8 51 6.0 W 6 7 3 4 1010.8 1008.2 0.0
04/03:00am 22.8 23.4 11.8 50 6.3 CALM 0 0 0 0 1010.8 1008.2 0.0
04/02:30am 23.6 24.2 12.0 48 6.7 CALM 0 0 0 0 1010.9 1008.3 0.0
04/02:00am 23.4 24.0 11.8 48 6.7 CALM 0 0 0 0 1010.8 1008.2 0.0
04/01:30am 24.1 24.7 11.8 46 7.1 CALM 0 0 0 0 1011.0 1008.4 0.0
04/01:00am 24.7 25.3 12.0 45 7.4 CALM 0 0 0 0 1011.3 1008.8 0.0
04/12:30am 25.0 24.5 12.2 44 7.4 NE 6 11 3 6 1011.6 1009.0 0.0
04/12:00am 24.9 23.3 11.5 43 7.7 WNW 11 13 6 7 1011.9 1009.3 0.0
 
Date/Time
EST
Temp
°C
App
Temp
°C
Dew
Point
°C
Rel
Hum
%
Delta-T
°C
Wind Press
QNH
hPa
Press
MSL
hPa
Rain since
9am
mm
Dir  Spd
km/h
Gust
km/h
Spd
kts
Gust
kts
03/11:30pm 25.2 25.4 10.6 40 8.3 CALM 0 0 0 0 1012.0 1009.4 0.0
03/11:00pm 26.0 26.3 11.0 39 8.6 CALM 0 0 0 0 1011.9 1009.3 0.0
03/10:30pm 26.5 26.7 10.6 37 9.1 CALM 0 0 0 0 1011.9 1009.3 0.0
03/10:00pm 27.0 27.1 10.2 35 9.5 CALM 0 0 0 0 1011.7 1009.1 0.0
03/09:30pm 27.8 27.9 10.1 33 10.1 CALM 0 0 0 0 1011.4 1008.9 0.0
03/09:00pm 28.9 28.6 10.1 31 10.8 NNE 2 6 1 3 1011.2 1008.7 0.0
03/08:30pm 31.0 29.9 9.8 27 12.2 N 6 7 3 4 1010.9 1008.3 0.0
03/08:00pm 32.9 31.2 9.7 24 13.4 N 9 11 5 6 1010.5 1007.9 0.0
03/07:30pm 35.1 32.7 10.2 22 14.6 NNW 13 19 7 10 1010.2 1007.6 0.0
03/07:00pm 36.4 33.5 9.8 20 15.7 N 15 19 8 10 1009.7 1007.1 0.0
03/06:30pm 37.6 35.1 8.4 17 16.9 NNW 11 20 6 11 1009.4 1006.8 0.0
03/06:00pm 39.2 37.0 7.8 15 18.2 NNW 9 19 5 10 1009.1 1006.5 0.0
03/05:30pm 39.7 37.2 8.2 15 18.3 NW 11 15 6 8 1009.0 1006.4 0.0
03/05:00pm 38.1 35.1 7.9 16 17.4 N 13 22 7 12 1009.0 1006.4 0.0
03/04:30pm 38.7 35.1 8.4 16 17.6 NNE 17 26 9 14 1009.1 1006.5 0.0
03/04:00pm 40.0 36.9 7.4 14 18.8 NE 13 20 7 11 1009.3 1006.7 0.0
03/03:30pm 39.7 37.5 9.2 16 18.0 N 11 22 6 12 1009.6 1007.0 0.0
03/03:00pm 39.6 37.5 8.1 15 18.3 N 9 17 5 9 1009.9 1007.3 0.0
03/02:30pm 39.8 36.9 8.3 15 18.4 NW 13 20 7 11 1010.5 1007.9 0.0
03/02:00pm 39.8 35.6 11.0 18 17.5 NNW 24 33 13 18 1011.0 1008.4 0.0
03/01:30pm 39.9 36.7 11.1 18 17.5 NNW 19 32 10 17 1011.2 1008.7 0.0
03/01:00pm 39.0 34.6 10.4 18 17.2 NNW 24 39 13 21 1011.8 1009.2 0.0
03/12:30pm 39.5 34.9 12.4 20 16.7 N 28 37 15 20 1012.3 1009.7 0.0
03/12:00pm 38.3 33.8 11.4 20 16.3 N 26 33 14 18 1012.6 1010.0 0.0
03/11:30am 36.0 33.5 12.3 24 14.4 NE 17 24 9 13 1012.8 1010.2 0.0
03/11:00am 35.8 33.6 13.3 26 13.9 NNE 17 26 9 14 1013.2 1010.6 0.0
03/10:30am 34.5 31.6 12.2 26 13.5 NNE 19 26 10 14 1013.5 1010.9 0.0
03/10:00am 34.0 30.7 14.0 30 12.4 NNE 24 30 13 16 1013.6 1011.0 0.0
03/09:30am 33.0 30.3 13.6 31 11.9 NNE 20 32 11 17 1013.5 1010.9 0.0
03/09:00am 32.2 30.2 13.9 33 11.3 NE 17 26 9 14 1013.5 1010.9 0.6
03/08:30am 30.0 30.1 17.5 47 8.0 NNE 13 19 7 10 1013.0 1010.4 0.6
03/08:00am 28.5 28.8 17.1 50 7.3 NE 11 15 6 8 1012.7 1010.1 0.6
03/07:30am 26.2 28.0 17.3 58 5.6 SSE 4 9 2 5 1012.1 1009.5 0.6
03/07:00am 24.1 27.1 18.5 71 3.6 CALM 0 0 0 0 1011.8 1009.2 0.6
03/06:30am 23.3 24.8 18.0 72 3.4 SSE 7 9 4 5 1011.1 1008.6 0.6
03/06:00am 23.2 24.7 17.7 71 3.5 ENE 6 9 3 5 1011.2 1008.7 0.6
03/05:30am 23.4 23.9 17.4 69 3.8 N 11 13 6 7 1011.2 1008.7 0.6
03/05:00am 23.9 23.9 17.2 66 4.2 N 13 15 7 8 1011.7 1009.1 0.6
03/04:30am 24.5 25.2 17.0 63 4.7 ENE 9 19 5 10 1012.3 1009.7 0.6
03/04:00am 23.8 24.4 17.8 69 3.8 ENE 11 17 6 9 1013.1 1010.5 0.6
03/03:30am 23.7 21.6 18.1 71 3.6 NE 26 33 14 18 1012.9 1010.3 0.6
03/03:00am 23.5 22.7 19.2 77 2.8 NE 22 30 12 16 1013.4 1010.8 0.6
03/02:30am 23.3 24.3 20.2 83 2.0 ENE 15 22 8 12 1014.1 1011.6 0.6
03/02:00am 23.3 23.3 20.2 83 2.0 NE 20 30 11 16 1014.4 1011.9 0.6
03/01:30am 23.9 24.1 20.2 80 2.4 NNE 19 26 10 14 1015.2 1012.6 0.2
03/01:00am 25.1 24.3 19.2 70 3.8 E 22 32 12 17 1015.8 1013.2 0.0
03/12:30am 26.9 26.7 16.8 54 6.4 NE 13 17 7 9 1015.9 1013.3 0.0
03/12:00am 26.6 26.1 16.8 55 6.2 NNE 15 20 8 11 1014.0 1011.5 0.0
 
Date/Time
EST
Temp
°C
App
Temp
°C
Dew
Point
°C
Rel
Hum
%
Delta-T
°C
Wind Press
QNH
hPa
Press
MSL
hPa
Rain since
9am
mm
Dir  Spd
km/h
Gust
km/h
Spd
kts
Gust
kts
02/11:30pm 26.8 26.5 16.4 53 6.5 NNE 13 17 7 9 1014.1 1011.6 0.0
02/11:00pm 27.0 25.9 16.3 52 6.7 NNE 17 24 9 13 1014.0 1011.5 0.0
02/10:30pm 27.4 26.3 16.4 51 6.9 N 17 28 9 15 1013.9 1011.4 0.0
02/10:00pm 26.6 25.5 17.7 58 5.7 N 20 37 11 20 1013.8 1011.3 0.0
02/09:30pm 26.6 23.4 18.5 61 5.2 N 33 50 18 27 1013.7 1011.1 0.0
02/09:00pm 26.4 23.3 18.3 61 5.2 N 32 41 17 22 1013.3 1010.7 0.0
02/08:30pm 27.9 23.4 17.4 52 6.7 N 37 56 20 30 1012.7 1010.1 0.0
02/08:02pm 28.9 23.7 18.4 53 6.8 NNE 43 61 23 33 1012.5 1009.9 0.0
02/08:00pm 29.0 23.1 18.1 51 7.1 NNE 46 61 25 33 1012.4 1009.8 0.0
02/07:52pm 30.6 25.9 17.7 46 8.3 NE 39 59 21 32 1012.1 1009.5 0.0
02/07:45pm 31.8 31.5 16.5 39 9.8 NNW 13 48 7 26 1011.2 1008.7 0.0
02/07:30pm 31.5 30.6 13.7 33 10.9 W 11 13 6 7 1010.1 1007.5 0.0
02/07:00pm 34.2 33.5 13.1 28 12.9 SSW 9 11 5 6 1009.9 1007.3 0.0
02/06:30pm 34.7 33.6 13.0 27 13.3 SSW 11 13 6 7 1009.5 1006.9 0.0
02/06:00pm 35.0 33.5 13.2 27 13.4 SSE 13 17 7 9 1009.4 1006.8 0.0
02/05:30pm 35.1 33.7 13.3 27 13.4 SSW 13 19 7 10 1009.3 1006.7 0.0
02/05:00pm 34.8 32.5 13.0 26 13.4 W 17 19 9 10 1008.9 1006.3 0.0
02/04:30pm 35.5 34.5 14.7 28 13.1 WNW 13 17 7 9 1008.7 1006.1 0.0
02/04:00pm 35.0 33.3 14.8 29 12.7 WNW 17 26 9 14 1008.4 1005.9 0.0
02/03:30pm 33.4 28.0 14.9 32 11.6 WNW 37 59 20 32 1009.1 1006.5 0.0
02/03:23pm 34.0 29.4 14.5 31 12.2 W 32 50 17 27 1009.2 1006.6 0.0
02/03:13pm 33.3 29.3 15.3 34 11.3 WNW 30 46 16 25 1009.1 1006.5 0.0
02/03:00pm 38.6 35.3 11.6 20 16.5 NE 20 32 11 17 1009.1 1006.5 0.0
02/02:30pm 37.9 35.6 11.8 21 15.9 N 15 22 8 12 1009.4 1006.8 0.0
02/02:00pm 38.1 36.4 11.2 20 16.3 NNE 11 20 6 11 1009.8 1007.2 0.0
02/01:30pm 39.4 37.9 13.0 21 16.4 NNE 13 19 7 10 1010.3 1007.7 0.0
02/01:00pm 38.8 37.9 12.5 21 16.2 N 9 20 5 11 1010.9 1008.3 0.0
02/12:30pm 38.4 36.4 14.9 25 15.0 WNW 19 30 10 16 1011.3 1008.8 0.0
02/12:00pm 37.4 35.3 14.7 26 14.4 N 19 28 10 15 1011.7 1009.1 0.0
02/11:30am 37.8 35.5 15.6 27 14.2 N 22 35 12 19 1012.0 1009.4 0.0
02/11:00am 36.8 33.8 14.7 26 14.0 NW 24 33 13 18 1012.4 1009.8 0.0
02/10:30am 36.8 33.6 15.3 28 13.7 NW 26 33 14 18 1012.5 1009.9 0.0

Other Formats:

Comma delimited format used in spreadsheet applications
http://www.bom.gov.au/fwo/IDQ60801/IDQ60801.94332.axf

JavaScript Object Notation format (JSON) in row-major order
http://www.bom.gov.au/fwo/IDQ60801/IDQ60801.94332.json